createdAt,value
2017-04-16T00:00:01.411Z,82.69
2017-04-16T00:00:42.291Z,82.97
2017-04-16T00:01:23.172Z,83.16
2017-04-16T00:02:04.063Z,82.88
2017-04-16T00:02:44.940Z,82.78
2017-04-16T00:03:25.829Z,83.16
2017-04-16T00:04:06.710Z,83.16
2017-04-16T00:04:47.636Z,83.07
2017-04-16T00:05:28.520Z,83.45
2017-04-16T00:06:09.395Z,83.64
2017-04-16T00:06:50.272Z,83.73
2017-04-16T00:07:31.139Z,83.36
2017-04-16T00:08:12.031Z,83.54
2017-04-16T00:08:52.905Z,83.45
2017-04-16T00:09:33.806Z,83.36
2017-04-16T00:10:14.668Z,83.54
2017-04-16T00:10:55.536Z,83.83
2017-04-16T00:11:36.420Z,83.92
2017-04-16T00:13:29.822Z,84.49
2017-04-16T00:14:10.689Z,84.87
2017-04-16T00:14:51.571Z,84.78
2017-04-16T00:15:32.450Z,84.49
2017-04-16T00:16:13.356Z,84.78
2017-04-16T00:16:54.220Z,84.78
2017-04-16T00:17:35.107Z,84.68
2017-04-16T00:18:15.975Z,84.97
2017-04-16T00:18:56.867Z,85.25
2017-04-16T00:19:37.750Z,84.68
2017-04-16T00:20:18.620Z,84.68
2017-04-16T00:20:59.494Z,85.35
2017-04-16T00:21:40.378Z,85.44
2017-04-16T00:22:21.253Z,85.25
2017-04-16T00:23:02.126Z,85.25
2017-04-16T00:23:43.004Z,85.25
2017-04-16T00:24:23.881Z,84.78
2017-04-16T00:25:04.768Z,84.97
2017-04-16T00:25:45.649Z,85.82
2017-04-16T00:26:26.531Z,85.63
2017-04-16T00:27:08.018Z,85.53
2017-04-16T00:27:48.895Z,85.06
2017-04-16T00:28:29.777Z,85.44
2017-04-16T00:29:10.651Z,85.72
2017-04-16T00:29:51.526Z,85.35
2017-04-16T00:30:32.399Z,84.97
2017-04-16T00:31:13.282Z,85.06
2017-04-16T00:31:54.173Z,85.06
2017-04-16T00:32:35.043Z,85.25
2017-04-16T00:33:15.913Z,85.06
2017-04-16T00:33:56.791Z,85.82
2017-04-16T00:34:37.661Z,85.44
2017-04-16T00:35:18.554Z,84.97
2017-04-16T00:35:59.434Z,85.53
2017-04-16T00:36:40.318Z,85.53
2017-04-16T00:37:21.205Z,85.35
2017-04-16T00:39:00.455Z,85.72
2017-04-16T00:39:41.320Z,85.53
2017-04-16T00:40:22.203Z,85.72
2017-04-16T00:41:03.087Z,85.06
2017-04-16T00:41:43.956Z,85.72
2017-04-16T00:42:24.831Z,86.39
2017-04-16T00:43:05.709Z,86.87
2017-04-16T00:43:46.587Z,86.77
2017-04-16T00:44:27.463Z,86.87
2017-04-16T00:45:08.338Z,86.68
2017-04-16T00:45:49.216Z,87.34
2017-04-16T00:46:30.103Z,87.43
2017-04-16T00:47:10.986Z,87.24
2017-04-16T00:47:51.877Z,87.11
2017-04-16T00:48:32.756Z,87.72
2017-04-16T00:49:13.629Z,87.43
2017-04-16T00:49:54.508Z,87.53
2017-04-16T00:50:35.377Z,87.43
2017-04-16T00:51:16.256Z,87.34
2017-04-16T00:51:57.123Z,87.05
2017-04-16T00:52:38.005Z,87.53
2017-04-16T00:53:18.883Z,87.39
2017-04-16T00:53:59.758Z,87.91
2017-04-16T00:54:40.634Z,88.15
2017-04-16T00:55:21.505Z,88.2
2017-04-16T00:56:02.388Z,87.96
2017-04-16T00:56:43.273Z,88.06
2017-04-16T00:57:24.152Z,88.53
2017-04-16T00:58:05.021Z,88.24
2017-04-16T00:58:45.895Z,88.53
2017-04-16T00:59:26.776Z,88.29
2017-04-16T01:00:07.665Z,88.24
2017-04-16T01:00:48.538Z,88.15
2017-04-16T01:01:29.411Z,88.34
2017-04-16T01:02:10.281Z,88.01
2017-04-16T01:02:51.154Z,87.24
2017-04-16T01:03:32.020Z,87.53
2017-04-16T01:04:12.896Z,88.2
2017-04-16T01:04:53.792Z,88.15
2017-04-16T01:05:34.681Z,88.15
2017-04-16T01:06:15.547Z,87.91
2017-04-16T01:06:56.453Z,88.2
2017-04-16T01:07:37.329Z,87.82
2017-04-16T01:08:18.199Z,88.15
2017-04-16T01:08:59.072Z,87.53
2017-04-16T01:09:39.951Z,86.68
2017-04-16T01:10:20.837Z,86.96
2017-04-16T01:11:01.713Z,86.58
2017-04-16T01:11:42.587Z,86.58
2017-04-16T01:12:23.463Z,87.34
2017-04-16T01:13:04.344Z,87.15
2017-04-16T01:13:45.226Z,87.68
2017-04-16T01:14:26.128Z,88.15
2017-04-16T01:15:07.025Z,88.24
2017-04-16T01:15:47.903Z,88.53
2017-04-16T01:16:28.780Z,88.57
2017-04-16T01:17:09.656Z,87.72
2017-04-16T01:17:50.529Z,87.53
2017-04-16T01:18:31.386Z,87.68
2017-04-16T01:19:12.264Z,87.72
2017-04-16T01:19:53.149Z,88.39
2017-04-16T01:20:34.031Z,88.1
2017-04-16T01:21:14.906Z,88.01
2017-04-16T01:21:55.775Z,87.82
2017-04-16T01:22:36.654Z,88.06
2017-04-16T01:23:17.538Z,88.06
2017-04-16T01:23:58.420Z,88.34
2017-04-16T01:24:39.288Z,88.43
2017-04-16T01:25:20.163Z,88.72
2017-04-16T01:26:01.038Z,88.15
2017-04-16T01:26:41.931Z,88.1
2017-04-16T01:27:22.811Z,87.53
2017-04-16T01:28:03.681Z,87.24
2017-04-16T01:28:44.554Z,87.43
2017-04-16T01:29:25.438Z,87.58
2017-04-16T01:30:06.314Z,87.24
2017-04-16T01:30:47.200Z,86.72
2017-04-16T01:31:28.068Z,86.87
2017-04-16T01:32:08.941Z,87.3
2017-04-16T01:32:49.812Z,86.87
2017-04-16T01:33:30.692Z,86.82
2017-04-16T01:34:11.578Z,87.43
2017-04-16T01:34:52.476Z,87.53
2017-04-16T01:35:33.355Z,87.34
2017-04-16T01:36:14.273Z,87.34
2017-04-16T01:36:55.142Z,87.15
2017-04-16T01:37:36.020Z,87.2
2017-04-16T01:38:16.891Z,87.24
2017-04-16T01:38:57.793Z,86.68
2017-04-16T01:39:38.672Z,86.77
2017-04-16T01:40:19.588Z,87.11
2017-04-16T01:41:00.468Z,87.15
2017-04-16T01:41:41.349Z,87.62
2017-04-16T01:42:22.214Z,86.82
2017-04-16T01:43:03.078Z,86.58
2017-04-16T01:43:43.937Z,86.2
2017-04-16T01:44:24.805Z,86.3
2017-04-16T01:45:05.705Z,86.77
2017-04-16T01:45:46.609Z,86.68
2017-04-16T01:46:27.474Z,86.68
2017-04-16T01:47:08.344Z,86.11
2017-04-16T01:47:49.213Z,85.72
2017-04-16T01:48:30.088Z,85.72
2017-04-16T01:49:10.984Z,85.72
2017-04-16T01:49:51.844Z,85.72
2017-04-16T01:50:32.713Z,86.3
2017-04-16T01:51:13.607Z,86.11
2017-04-16T01:51:54.493Z,86.11
2017-04-16T01:52:35.382Z,86.39
2017-04-16T01:53:16.254Z,86.82
2017-04-16T01:53:57.128Z,86.68
2017-04-16T01:54:37.993Z,86.01
2017-04-16T01:55:18.958Z,86.39
2017-04-16T01:55:59.835Z,86.11
2017-04-16T01:56:40.716Z,86.2
2017-04-16T01:57:21.586Z,86.49
2017-04-16T01:58:02.452Z,85.72
2017-04-16T01:58:43.333Z,85.72
2017-04-16T01:59:24.202Z,86.39
2017-04-16T02:00:05.080Z,86.2
2017-04-16T02:00:45.973Z,86.58
2017-04-16T02:01:26.847Z,86.68
2017-04-16T02:02:07.702Z,87.72
2017-04-16T02:02:48.566Z,87.39
2017-04-16T02:03:29.429Z,87.11
2017-04-16T02:04:10.307Z,87.2
2017-04-16T02:04:51.177Z,87.58
2017-04-16T02:05:32.059Z,87.34
2017-04-16T02:06:12.950Z,87.34
2017-04-16T02:06:53.810Z,87.3
2017-04-16T02:07:34.673Z,87.24
2017-04-16T02:08:15.540Z,86.68
2017-04-16T02:08:56.471Z,85.91
2017-04-16T02:09:37.338Z,86.49
2017-04-16T02:10:18.196Z,87.58
2017-04-16T02:10:59.061Z,87.01
2017-04-16T02:11:39.930Z,87.3
2017-04-16T02:12:20.792Z,87.77
2017-04-16T02:13:01.667Z,86.68
2017-04-16T02:13:42.561Z,86.39
2017-04-16T02:14:23.474Z,86.11
2017-04-16T02:15:04.367Z,86.68
2017-04-16T02:15:45.248Z,86.58
2017-04-16T02:16:26.122Z,86.72
2017-04-16T02:17:06.994Z,86.68
2017-04-16T02:17:47.864Z,87.3
2017-04-16T02:18:28.737Z,87.24
2017-04-16T02:19:09.615Z,87.53
2017-04-16T02:19:50.495Z,86.01
2017-04-16T02:20:31.372Z,86.2
2017-04-16T02:21:12.237Z,86.39
2017-04-16T02:21:53.115Z,86.54
2017-04-16T02:22:33.983Z,87.3
2017-04-16T02:23:14.861Z,87.11
2017-04-16T02:23:55.727Z,87.43
2017-04-16T02:24:36.605Z,86.49
2017-04-16T02:25:17.474Z,86.68
2017-04-16T02:25:58.336Z,86.2
2017-04-16T02:26:39.202Z,86.2
2017-04-16T02:27:20.073Z,86.3
2017-04-16T02:28:00.955Z,86.68
2017-04-16T02:28:41.835Z,87.39
2017-04-16T02:29:22.718Z,87.49
2017-04-16T02:30:03.597Z,87.77
2017-04-16T02:30:44.463Z,87.43
2017-04-16T02:31:25.337Z,86.77
2017-04-16T02:32:06.223Z,86.87
2017-04-16T02:32:47.104Z,86.58
2017-04-16T02:33:27.972Z,86.68
2017-04-16T02:34:08.842Z,86.87
2017-04-16T02:34:49.705Z,86.11
2017-04-16T02:35:30.583Z,86.68
2017-04-16T02:36:11.416Z,86.39
2017-04-16T02:36:52.303Z,86.49
2017-04-16T02:37:33.187Z,86.2
2017-04-16T02:38:14.067Z,86.11
2017-04-16T02:38:54.932Z,86.2
2017-04-16T02:39:35.806Z,86.11
2017-04-16T02:40:16.679Z,86.3
2017-04-16T02:40:57.550Z,86.68
2017-04-16T02:41:38.474Z,86.77
2017-04-16T02:42:19.321Z,87.39
2017-04-16T02:43:00.197Z,87.39
2017-04-16T02:43:41.060Z,88.15
2017-04-16T02:44:21.939Z,88.15
2017-04-16T02:45:02.817Z,87.62
2017-04-16T02:45:43.699Z,87.49
2017-04-16T02:46:24.577Z,87.11
2017-04-16T02:47:05.450Z,87.34
2017-04-16T02:47:46.330Z,87.15
2017-04-16T02:48:27.219Z,87.58
2017-04-16T02:49:08.104Z,87.58
2017-04-16T02:49:48.981Z,87.82
2017-04-16T02:50:29.866Z,88.06
2017-04-16T02:51:10.758Z,87.34
2017-04-16T02:51:51.661Z,87.82
2017-04-16T02:52:32.531Z,88.15
2017-04-16T02:53:13.405Z,88.15
2017-04-16T02:53:54.267Z,88.06
2017-04-16T02:54:35.160Z,88.15
2017-04-16T02:55:16.029Z,88.06
2017-04-16T02:55:56.913Z,88.29
2017-04-16T02:56:37.797Z,87.62
2017-04-16T02:57:18.674Z,87.58
2017-04-16T02:57:59.561Z,87.11
2017-04-16T02:58:40.440Z,88.34
2017-04-16T02:59:21.320Z,88.81
2017-04-16T03:00:02.199Z,89.39
2017-04-16T03:00:43.081Z,89.1
2017-04-16T03:01:23.965Z,88.81
2017-04-16T03:02:04.851Z,89.39
2017-04-16T03:02:45.737Z,89.39
2017-04-16T03:03:26.627Z,88.91
2017-04-16T03:04:07.495Z,88.53
2017-04-16T03:04:48.373Z,88.34
2017-04-16T03:05:29.248Z,88.24
2017-04-16T03:06:10.180Z,88.15
2017-04-16T03:06:51.051Z,88.24
2017-04-16T03:07:31.922Z,88.91
2017-04-16T03:08:12.797Z,89.48
2017-04-16T03:08:53.683Z,88.81
2017-04-16T03:09:34.552Z,88.48
2017-04-16T03:10:15.423Z,88.29
2017-04-16T03:10:56.299Z,87.53
2017-04-16T03:11:37.182Z,88.15
2017-04-16T03:12:18.120Z,87.82
2017-04-16T03:12:59.007Z,88.1
2017-04-16T03:13:39.890Z,88.43
2017-04-16T03:14:20.764Z,88.62
2017-04-16T03:15:01.646Z,89.39
2017-04-16T03:15:42.515Z,89.48
2017-04-16T03:16:23.385Z,88.95
2017-04-16T03:17:04.257Z,88.57
2017-04-16T03:17:45.141Z,88.76
2017-04-16T03:18:26.025Z,88.39
2017-04-16T03:19:06.901Z,88.48
2017-04-16T03:19:47.786Z,87.82
2017-04-16T03:20:28.653Z,88.01
2017-04-16T03:21:09.534Z,87.43
2017-04-16T03:21:50.403Z,87.53
2017-04-16T03:22:31.281Z,87.05
2017-04-16T03:23:12.180Z,87.72
2017-04-16T03:23:53.056Z,87.34
2017-04-16T03:24:33.945Z,88.34
2017-04-16T03:25:14.845Z,88.24
2017-04-16T03:25:55.720Z,88.06
2017-04-16T03:26:36.605Z,88.2
2017-04-16T03:27:17.481Z,88.29
2017-04-16T03:27:58.354Z,88.39
2017-04-16T03:28:39.248Z,88.48
2017-04-16T03:29:20.130Z,88.53
2017-04-16T03:30:01.013Z,88.81
2017-04-16T03:30:41.896Z,88.57
2017-04-16T03:31:22.763Z,88.67
2017-04-16T03:32:03.644Z,88.95
2017-04-16T03:32:44.519Z,88.72
2017-04-16T03:33:25.392Z,89.1
2017-04-16T03:34:06.276Z,88.86
2017-04-16T03:34:47.147Z,88.62
2017-04-16T03:35:28.063Z,89.05
2017-04-16T03:36:08.924Z,89.05
2017-04-16T03:36:49.805Z,88.86
2017-04-16T03:37:30.678Z,88.81
2017-04-16T03:38:11.561Z,89.1
2017-04-16T03:38:52.434Z,88.57
2017-04-16T03:39:33.315Z,88.29
2017-04-16T03:40:14.200Z,88.39
2017-04-16T03:40:55.072Z,88.29
2017-04-16T03:41:35.941Z,88.2
2017-04-16T03:42:16.823Z,88.2
2017-04-16T03:42:57.703Z,87.62
2017-04-16T03:43:38.593Z,87.34
2017-04-16T03:44:19.468Z,88.01
2017-04-16T03:45:00.352Z,88.57
2017-04-16T03:45:41.236Z,89.43
2017-04-16T03:46:22.114Z,89.14
2017-04-16T03:47:02.986Z,89.53
2017-04-16T03:47:43.863Z,89.9
2017-04-16T03:48:24.726Z,90.28
2017-04-16T03:49:05.601Z,89.76
2017-04-16T03:49:46.462Z,90.47
2017-04-16T03:50:27.344Z,90
2017-04-16T03:51:08.216Z,89.9
2017-04-16T03:51:49.111Z,90.09
2017-04-16T03:52:30.021Z,89.72
2017-04-16T03:53:10.883Z,89.9
2017-04-16T03:53:51.763Z,90.66
2017-04-16T03:54:32.643Z,90.43
2017-04-16T03:55:13.515Z,90.9
2017-04-16T03:55:54.403Z,91.24
2017-04-16T03:56:35.283Z,90.95
2017-04-16T03:57:16.163Z,90.66
2017-04-16T03:57:57.040Z,90.38
2017-04-16T03:58:37.919Z,90.28
2017-04-16T03:59:18.805Z,90.47
2017-04-16T03:59:59.678Z,90.47
2017-04-16T04:00:40.556Z,89.9
2017-04-16T04:01:21.428Z,89.81
2017-04-16T04:02:02.309Z,90.85
2017-04-16T04:02:43.191Z,91.42
2017-04-16T04:03:24.070Z,90.85
2017-04-16T04:04:04.943Z,90.57
2017-04-16T04:04:45.820Z,90.09
2017-04-16T04:05:26.701Z,90.47
2017-04-16T04:06:07.589Z,90.76
2017-04-16T04:06:48.465Z,91.61
2017-04-16T04:07:29.349Z,91.52
2017-04-16T04:08:10.230Z,91.04
2017-04-16T04:08:51.099Z,91.52
2017-04-16T04:09:31.978Z,91.33
2017-04-16T04:10:12.858Z,91.24
2017-04-16T04:10:53.736Z,90.28
2017-04-16T04:11:34.611Z,90.95
2017-04-16T04:12:15.505Z,91.14
2017-04-16T04:12:56.374Z,90.95
2017-04-16T04:13:37.273Z,90.66
2017-04-16T04:14:18.159Z,90.76
2017-04-16T04:14:59.036Z,91.14
2017-04-16T04:15:39.920Z,91.89
2017-04-16T04:16:20.803Z,91.8
2017-04-16T04:17:01.671Z,90.95
2017-04-16T04:17:42.553Z,91.71
2017-04-16T04:18:23.439Z,91.8
2017-04-16T04:19:04.318Z,91.89
2017-04-16T04:19:45.193Z,91.89
2017-04-16T04:20:26.077Z,91.61
2017-04-16T04:21:06.955Z,91.71
2017-04-16T04:21:47.838Z,91.75
2017-04-16T04:22:28.764Z,92.37
2017-04-16T04:23:09.628Z,92.28
2017-04-16T04:23:50.504Z,92.23
2017-04-16T04:24:31.381Z,92.37
2017-04-16T04:25:12.260Z,91.52
2017-04-16T04:25:53.145Z,92.18
2017-04-16T04:26:34.013Z,91.71
2017-04-16T04:27:14.887Z,91.56
2017-04-16T04:27:55.774Z,91.75
2017-04-16T04:28:36.653Z,91.66
2017-04-16T04:29:17.538Z,92.37
2017-04-16T04:29:58.431Z,92.33
2017-04-16T04:30:39.312Z,91.94
2017-04-16T04:31:20.187Z,92.85
2017-04-16T04:32:01.062Z,92.37
2017-04-16T04:32:41.931Z,92.37
2017-04-16T04:33:22.804Z,91.61
2017-04-16T04:34:03.683Z,90.76
2017-04-16T04:34:44.547Z,91.42
2017-04-16T04:35:25.423Z,90.47
2017-04-16T04:36:06.301Z,90.47
2017-04-16T04:36:47.178Z,90.57
2017-04-16T04:37:28.056Z,89.9
2017-04-16T04:38:08.959Z,89.9
2017-04-16T04:38:49.848Z,89.72
2017-04-16T04:39:30.715Z,91.04
2017-04-16T04:40:11.589Z,91.71
2017-04-16T04:40:52.468Z,91.52
2017-04-16T04:41:33.340Z,91.99
2017-04-16T04:42:14.237Z,91.33
2017-04-16T04:42:55.110Z,91.8
2017-04-16T04:43:35.986Z,91.61
2017-04-16T04:44:16.852Z,91.61
2017-04-16T04:44:57.759Z,91.71
2017-04-16T04:45:38.638Z,92.18
2017-04-16T04:46:19.519Z,91.71
2017-04-16T04:47:00.387Z,91.24
2017-04-16T04:47:41.257Z,91.33
2017-04-16T04:48:22.141Z,91.61
2017-04-16T04:49:03.005Z,91.71
2017-04-16T04:49:43.908Z,91.99
2017-04-16T04:50:24.790Z,91.71
2017-04-16T04:51:05.665Z,92.18
2017-04-16T04:51:46.552Z,91.61
2017-04-16T04:52:27.433Z,91.8
2017-04-16T04:53:08.317Z,91.89
2017-04-16T04:53:49.206Z,92.28
2017-04-16T04:54:30.082Z,92.18
2017-04-16T04:55:10.965Z,92.09
2017-04-16T04:55:51.838Z,93.04
2017-04-16T04:56:32.714Z,92.66
2017-04-16T04:57:13.599Z,93.23
2017-04-16T04:57:54.479Z,92.37
2017-04-16T04:58:35.357Z,91.99
2017-04-16T04:59:16.247Z,91.99
2017-04-16T04:59:57.131Z,91.61
2017-04-16T05:00:38.013Z,91.71
2017-04-16T05:01:18.892Z,91.99
2017-04-16T05:01:59.767Z,91.99
2017-04-16T05:02:40.636Z,92.09
2017-04-16T05:03:21.513Z,92.09
2017-04-16T05:04:02.407Z,92.28
2017-04-16T05:04:43.286Z,91.8
2017-04-16T05:05:24.169Z,91.33
2017-04-16T05:06:05.052Z,91.61
2017-04-16T05:06:45.950Z,92.37
2017-04-16T05:07:26.880Z,92.85
2017-04-16T05:08:07.758Z,92.94
2017-04-16T05:08:48.632Z,92.75
2017-04-16T05:09:29.513Z,92.75
2017-04-16T05:10:10.443Z,92.94
2017-04-16T05:10:51.311Z,91.52
2017-04-16T05:11:32.183Z,91.71
2017-04-16T05:12:13.059Z,90.95
2017-04-16T05:12:53.943Z,90.95
2017-04-16T05:13:34.827Z,91.8
2017-04-16T05:14:15.701Z,91.61
2017-04-16T05:14:56.586Z,91.99
2017-04-16T05:15:37.473Z,91.71
2017-04-16T05:16:18.343Z,91.61
2017-04-16T05:16:59.232Z,92.28
2017-04-16T05:17:40.114Z,91.99
2017-04-16T05:18:21.027Z,91.99
2017-04-16T05:19:01.899Z,91.89
2017-04-16T05:19:42.781Z,92.09
2017-04-16T05:20:23.653Z,91.42
2017-04-16T05:21:04.534Z,91.04
2017-04-16T05:21:45.412Z,91.52
2017-04-16T05:22:26.325Z,90.19
2017-04-16T05:23:07.212Z,91.61
2017-04-16T05:23:48.072Z,91.52
2017-04-16T05:24:28.947Z,91.33
2017-04-16T05:25:09.834Z,91.61
2017-04-16T05:25:50.708Z,91.71
2017-04-16T05:26:31.585Z,91.71
2017-04-16T05:27:12.463Z,91.8
2017-04-16T05:27:53.344Z,91.89
2017-04-16T05:28:34.227Z,91.71
2017-04-16T05:29:15.100Z,91.71
2017-04-16T05:29:55.974Z,92.37
2017-04-16T05:30:36.851Z,92.94
2017-04-16T05:31:17.725Z,92.75
2017-04-16T05:31:58.606Z,92.66
2017-04-16T05:32:39.489Z,92.94
2017-04-16T05:33:20.370Z,92.56
2017-04-16T05:34:01.248Z,92.75
2017-04-16T05:34:42.132Z,92.75
2017-04-16T05:35:23.014Z,92.85
2017-04-16T05:36:03.894Z,93.23
2017-04-16T05:36:44.772Z,93.8
2017-04-16T05:37:25.652Z,94.18
2017-04-16T05:38:06.547Z,93.89
2017-04-16T05:38:47.430Z,93.41
2017-04-16T05:39:28.297Z,93.99
2017-04-16T05:40:09.199Z,94.08
2017-04-16T05:40:50.059Z,93.89
2017-04-16T05:41:30.963Z,93.6
2017-04-16T05:42:11.851Z,93.41
2017-04-16T05:42:52.729Z,94.27
2017-04-16T05:43:33.608Z,94.08
2017-04-16T05:44:14.478Z,94.65
2017-04-16T05:44:55.352Z,94.37
2017-04-16T05:45:36.226Z,95.41
2017-04-16T05:46:17.107Z,94.74
2017-04-16T05:46:57.986Z,94.46
2017-04-16T05:47:38.870Z,94.37
2017-04-16T05:48:19.747Z,94.65
2017-04-16T05:49:00.623Z,93.8
2017-04-16T05:49:41.504Z,93.8
2017-04-16T05:50:22.391Z,94.46
2017-04-16T05:51:03.256Z,94.93
2017-04-16T05:51:44.129Z,93.6
2017-04-16T05:52:24.994Z,93.89
2017-04-16T05:53:05.878Z,93.7
2017-04-16T05:53:46.749Z,93.32
2017-04-16T05:54:27.627Z,92.94
2017-04-16T05:55:08.504Z,93.41
2017-04-16T05:55:49.370Z,92.94
2017-04-16T05:56:30.240Z,92.18
2017-04-16T05:57:11.130Z,92.04
2017-04-16T05:57:52.116Z,91.66
2017-04-16T05:58:32.989Z,91.8
2017-04-16T05:59:13.866Z,92.28
2017-04-16T05:59:54.741Z,91.94
2017-04-16T06:00:35.669Z,91.85
2017-04-16T06:01:16.539Z,91.56
2017-04-16T06:01:57.423Z,90.8
2017-04-16T06:02:38.299Z,90.71
2017-04-16T06:03:19.179Z,90.33
2017-04-16T06:04:00.069Z,90.71
2017-04-16T06:04:40.945Z,90.42
2017-04-16T06:05:21.831Z,90.8
2017-04-16T06:06:02.717Z,89.95
2017-04-16T06:06:43.597Z,90.52
2017-04-16T06:07:24.475Z,90.9
2017-04-16T06:08:05.349Z,91.47
2017-04-16T06:08:46.235Z,91.85
2017-04-16T06:09:27.111Z,91.75
2017-04-16T06:10:07.995Z,92.99
2017-04-16T06:10:48.872Z,92.94
2017-04-16T06:11:29.742Z,93.04
2017-04-16T06:12:10.663Z,92.9
2017-04-16T06:13:38.757Z,92.28
2017-04-16T06:14:19.614Z,92.99
2017-04-16T06:15:00.496Z,92.61
2017-04-16T06:15:41.381Z,92.09
2017-04-16T06:16:22.267Z,92.09
2017-04-16T06:17:03.136Z,92.8
2017-04-16T06:17:44.014Z,92.51
2017-04-16T06:18:24.961Z,92.56
2017-04-16T06:19:05.756Z,92.13
2017-04-16T06:19:46.628Z,91.8
2017-04-16T06:20:27.510Z,91.8
2017-04-16T06:21:08.389Z,92.09
2017-04-16T06:21:49.268Z,91.99
2017-04-16T06:22:30.138Z,92.04
2017-04-16T06:23:11.036Z,92.09
2017-04-16T06:23:51.917Z,91.8
2017-04-16T06:24:32.787Z,91.71
2017-04-16T06:25:13.692Z,91.85
2017-04-16T06:25:54.584Z,92.13
2017-04-16T06:26:35.474Z,91.75
2017-04-16T06:27:16.463Z,90.71
2017-04-16T06:27:57.562Z,90.99
2017-04-16T06:28:38.400Z,90.71
2017-04-16T06:29:19.278Z,91.28
2017-04-16T06:30:00.158Z,91.38
2017-04-16T06:30:41.032Z,91.19
2017-04-16T06:31:21.909Z,91.75
2017-04-16T06:32:02.798Z,91.47
2017-04-16T06:32:43.684Z,90.71
2017-04-16T06:33:24.537Z,91.38
2017-04-16T06:34:05.410Z,91.75
2017-04-16T06:34:46.286Z,92.94
2017-04-16T06:35:27.167Z,93.13
2017-04-16T06:36:08.048Z,94.23
2017-04-16T06:36:48.921Z,95.08
2017-04-16T06:37:29.793Z,95.6
2017-04-16T06:38:10.671Z,96.17
2017-04-16T06:38:51.544Z,96.93
2017-04-16T06:39:32.425Z,97.5
2017-04-16T06:40:13.302Z,97.6
2017-04-16T06:40:54.179Z,97.12
2017-04-16T06:41:35.078Z,97.12
2017-04-16T06:42:15.965Z,97.97
2017-04-16T06:42:56.847Z,97.97
2017-04-16T06:43:37.729Z,97.88
2017-04-16T06:44:18.606Z,98.07
2017-04-16T06:44:59.504Z,97.97
2017-04-16T06:45:40.383Z,97.78
2017-04-16T06:46:21.244Z,97.69
2017-04-16T06:47:02.135Z,97.97
2017-04-16T06:47:43.018Z,97.78
2017-04-16T06:48:23.900Z,97.97
2017-04-16T06:49:04.777Z,97.97
2017-04-16T06:49:45.649Z,97.02
2017-04-16T06:50:26.527Z,96.74
2017-04-16T06:51:07.408Z,96.26
2017-04-16T06:51:48.288Z,95.7
2017-04-16T06:52:29.156Z,95.6
2017-04-16T06:53:10.036Z,95.79
2017-04-16T06:53:50.920Z,95.6
2017-04-16T06:54:31.804Z,95.31
2017-04-16T06:55:12.680Z,95.36
2017-04-16T06:55:53.573Z,94.79
2017-04-16T06:56:34.453Z,94.7
2017-04-16T06:57:15.327Z,93.08
2017-04-16T06:57:56.213Z,92.32
2017-04-16T06:58:37.081Z,91.38
2017-04-16T06:59:17.960Z,90.23
2017-04-16T06:59:58.832Z,90.14
2017-04-16T07:00:39.702Z,89.19
2017-04-16T07:01:20.576Z,90.05
2017-04-16T07:02:01.462Z,89.33
2017-04-16T07:02:42.338Z,88.85
2017-04-16T07:03:23.210Z,87.43
2017-04-16T07:04:04.095Z,87.43
2017-04-16T07:04:44.967Z,87.48
2017-04-16T07:05:25.842Z,88.28
2017-04-16T07:06:06.715Z,88.15
2017-04-16T07:06:47.595Z,88.34
2017-04-16T07:07:28.461Z,88.34
2017-04-16T07:08:09.340Z,88.67
2017-04-16T07:08:50.222Z,87.52
2017-04-16T07:09:31.103Z,86.57
2017-04-16T07:10:11.981Z,85.96
2017-04-16T07:10:52.856Z,84.44
2017-04-16T07:11:33.731Z,86.05
2017-04-16T07:12:14.616Z,86.72
2017-04-16T07:12:55.503Z,86.72
2017-04-16T07:13:36.381Z,87.29
2017-04-16T07:14:17.254Z,87.29
2017-04-16T07:14:58.128Z,88.05
2017-04-16T07:15:39.012Z,88.24
2017-04-16T07:16:19.890Z,88.62
2017-04-16T07:17:00.766Z,89
2017-04-16T07:17:41.640Z,89.28
2017-04-16T07:18:22.513Z,89
2017-04-16T07:19:03.391Z,89.47
2017-04-16T07:19:44.271Z,90.33
2017-04-16T07:20:25.149Z,91.85
2017-04-16T07:21:06.019Z,92.32
2017-04-16T07:21:46.904Z,92.04
2017-04-16T07:22:27.783Z,92.32
2017-04-16T07:23:08.664Z,92.13
2017-04-16T07:23:49.539Z,92.9
2017-04-16T07:24:30.418Z,93.51
2017-04-16T07:25:11.288Z,94.84
2017-04-16T07:25:52.226Z,95.03
2017-04-16T07:26:33.128Z,96.08
2017-04-16T07:27:13.997Z,96.55
2017-04-16T07:27:54.878Z,96.64
2017-04-16T07:28:35.760Z,97.5
2017-04-16T07:29:16.648Z,98.45
2017-04-16T07:29:57.530Z,98.45
2017-04-16T07:30:38.412Z,98.16
2017-04-16T07:31:19.292Z,98.35
2017-04-16T07:32:00.172Z,99.49
2017-04-16T07:32:41.052Z,98.92
2017-04-16T07:33:21.934Z,99.02
2017-04-16T07:34:02.809Z,98.92
2017-04-16T07:34:43.689Z,99.11
2017-04-16T07:35:24.568Z,99.11
2017-04-16T07:36:05.441Z,99.97
2017-04-16T07:36:46.331Z,99.02
2017-04-16T07:37:27.206Z,98.45
2017-04-16T07:38:08.079Z,98.02
2017-04-16T07:38:48.956Z,98.07
2017-04-16T07:39:29.834Z,98.16
2017-04-16T07:40:10.712Z,98.64
2017-04-16T07:40:51.593Z,98.64
2017-04-16T07:41:32.476Z,98.83
2017-04-16T07:42:13.354Z,99.11
2017-04-16T07:42:54.236Z,99.16
2017-04-16T07:43:35.114Z,99.3
2017-04-16T07:44:16.004Z,98.68
2017-04-16T07:44:56.876Z,99.82
2017-04-16T07:45:37.755Z,99.99
2017-04-16T07:46:18.631Z,99.97
2017-04-16T07:46:59.511Z,99.16
2017-04-16T07:47:40.386Z,99.26
2017-04-16T07:48:21.263Z,99.77
2017-04-16T07:49:02.162Z,98.83
2017-04-16T07:49:43.041Z,97.88
2017-04-16T07:50:23.917Z,98.35
2017-04-16T07:51:04.795Z,97.88
2017-04-16T07:51:45.681Z,99.02
2017-04-16T07:52:26.557Z,99.58
2017-04-16T07:53:07.435Z,99.99
2017-04-16T07:53:48.311Z,98.35
2017-04-16T07:54:29.186Z,97.69
2017-04-16T07:55:10.071Z,97.69
2017-04-16T07:55:50.953Z,96.93
2017-04-16T07:56:31.830Z,96.45
2017-04-16T07:57:12.700Z,96.74
2017-04-16T07:57:53.575Z,94.98
2017-04-16T07:58:34.460Z,92.99
2017-04-16T07:59:15.348Z,96.12
2017-04-16T07:59:56.220Z,89.94
2017-04-16T08:00:37.106Z,82.08
2017-04-16T08:01:17.987Z,79.72
2017-04-16T08:01:58.882Z,82.05
2017-04-16T08:02:39.759Z,82.91
2017-04-16T08:03:20.641Z,83.62
2017-04-16T08:04:01.518Z,83.33
2017-04-16T08:04:42.406Z,83.14
2017-04-16T08:05:23.291Z,84.05
2017-04-16T08:06:04.166Z,84.05
2017-04-16T08:06:45.053Z,84.62
2017-04-16T08:07:25.936Z,83.81
2017-04-16T08:08:06.827Z,83.14
2017-04-16T08:08:47.714Z,82.43
2017-04-16T08:09:28.595Z,83.14
2017-04-16T08:10:09.491Z,81.81
2017-04-16T08:10:50.361Z,81.33
2017-04-16T08:11:31.240Z,81.43
2017-04-16T08:12:12.123Z,80.9
2017-04-16T08:12:53.010Z,79.94
2017-04-16T08:13:33.892Z,79.62
2017-04-16T08:14:14.784Z,79.62
2017-04-16T08:14:55.682Z,80.24
2017-04-16T08:15:36.578Z,82.05
2017-04-16T08:16:17.460Z,81.96
2017-04-16T08:16:58.340Z,81.24
2017-04-16T08:17:39.241Z,80.04
2017-04-16T08:19:08.310Z,80.57
2017-04-16T08:19:49.206Z,80.23
2017-04-16T08:20:30.087Z,79.52
2017-04-16T08:21:10.976Z,80.13
2017-04-16T08:21:51.859Z,80
2017-04-16T08:22:32.751Z,81.14
2017-04-16T08:23:13.639Z,82.34
2017-04-16T08:23:54.532Z,83.39
2017-04-16T08:24:35.415Z,83.29
2017-04-16T08:25:16.296Z,82.71
2017-04-16T08:25:57.170Z,83.29
2017-04-16T08:26:38.067Z,84.43
2017-04-16T08:27:18.949Z,84.05
2017-04-16T08:27:59.833Z,84.62
2017-04-16T08:28:40.725Z,84.05
2017-04-16T08:29:21.605Z,84.24
2017-04-16T08:30:02.474Z,84.52
2017-04-16T08:30:43.353Z,85.1
2017-04-16T08:31:24.225Z,84.81
2017-04-16T08:32:05.107Z,84.62
2017-04-16T08:32:45.990Z,85.43
2017-04-16T08:33:26.882Z,85.34
2017-04-16T08:34:07.762Z,85.76
2017-04-16T08:34:48.642Z,85.53
2017-04-16T08:35:29.527Z,85.72
2017-04-16T08:36:10.405Z,85.43
2017-04-16T08:36:51.290Z,84.39
2017-04-16T08:37:32.171Z,84.2
2017-04-16T08:38:13.055Z,84.1
2017-04-16T08:38:53.942Z,84.48
2017-04-16T08:39:34.812Z,84.58
2017-04-16T08:40:15.712Z,83.76
2017-04-16T08:40:56.590Z,83.48
2017-04-16T08:41:37.465Z,83.15
2017-04-16T08:42:18.341Z,83.15
2017-04-16T08:42:59.223Z,83.15
2017-04-16T08:43:40.108Z,82.87
2017-04-16T08:44:20.985Z,82.2
2017-04-16T08:45:01.865Z,81.82
2017-04-16T08:45:42.751Z,81.25
2017-04-16T08:46:23.630Z,80.24
2017-04-16T08:47:04.518Z,80.05
2017-04-16T08:47:45.422Z,80.05
2017-04-16T08:48:26.307Z,79.39
2017-04-16T08:49:07.201Z,78.72
2017-04-16T08:49:48.069Z,78.16
2017-04-16T08:50:28.950Z,76.92
2017-04-16T08:51:09.830Z,75.59
2017-04-16T08:51:50.710Z,75.05